Time;durP1;ratioP1;P1;durP2;ratioP2;P2;SDS_P1;SDS_P2;PMS_P1;PMS_P2;Temp;Humidity;BMP_temperature;BMP_pressure;BME280_temperature;BME280_humidity;BME280_pressure;Samples;Min_cycle;Max_cycle;Signal;HPM_P1;HPM_P2
2022/12/20 00:02:08;;;;;;;7.20;4.33;;;9.50;1.00;;;;;;5020395;28;20558;-65
2022/12/20 00:04:35;;;;;;;6.60;4.90;;;9.50;1.00;;;;;;5020245;28;20590;-65
2022/12/20 00:07:04;;;;;;;5.73;4.27;;;9.60;1.00;;;;;;5020365;28;20464;-66
2022/12/20 00:09:31;;;;;;;5.33;4.67;;;9.60;1.00;;;;;;5020384;28;20509;-65
2022/12/20 00:11:58;;;;;;;6.07;5.17;;;9.60;1.00;;;;;;5020155;28;20503;-65
2022/12/20 00:14:25;;;;;;;5.63;4.50;;;9.60;1.00;;;;;;5019933;28;20542;-65
2022/12/20 00:16:52;;;;;;;5.90;4.60;;;9.60;1.00;;;;;;5019670;28;20528;-65
2022/12/20 00:19:19;;;;;;;6.87;4.87;;;9.60;1.00;;;;;;5018813;28;20474;-66
2022/12/20 00:21:47;;;;;;;7.00;4.40;;;9.60;1.00;;;;;;5030337;28;20454;-65
2022/12/20 00:24:15;;;;;;;5.10;4.47;;;9.60;1.00;;;;;;5059584;28;20796;-66
2022/12/20 00:26:42;;;;;;;7.53;4.47;;;9.60;1.00;;;;;;5058880;28;20461;-66
2022/12/20 00:29:10;;;;;;;6.00;4.90;;;9.60;1.00;;;;;;5059657;28;20577;-66
2022/12/20 00:31:37;;;;;;;5.37;4.83;;;9.60;1.00;;;;;;5059104;28;20552;-66
2022/12/20 00:34:04;;;;;;;6.50;4.87;;;9.60;1.00;;;;;;5059681;28;20875;-65
2022/12/20 00:36:33;;;;;;;6.10;4.33;;;9.60;1.00;;;;;;5059600;28;20486;-66
2022/12/20 00:39:01;;;;;;;5.27;4.10;;;9.70;1.00;;;;;;5059430;28;20768;-65
2022/12/20 00:41:31;;;;;;;7.13;4.67;;;9.70;1.00;;;;;;5059376;28;20436;-65
2022/12/20 00:43:59;;;;;;;6.13;4.37;;;9.70;1.00;;;;;;5059415;28;20490;-66
2022/12/20 00:46:26;;;;;;;5.50;3.83;;;9.70;1.00;;;;;;5059221;28;20466;-65
2022/12/20 00:48:54;;;;;;;5.27;4.40;;;9.70;1.00;;;;;;5059330;28;20535;-66
2022/12/20 00:51:24;;;;;;;6.43;4.73;;;9.70;1.00;;;;;;5059344;28;20445;-66
2022/12/20 00:53:51;;;;;;;7.23;4.53;;;9.80;1.00;;;;;;5059312;28;20871;-66
2022/12/20 00:56:19;;;;;;;5.63;4.23;;;9.70;1.00;;;;;;5059218;28;20516;-66
2022/12/20 00:58:47;;;;;;;5.13;3.70;;;9.70;1.00;;;;;;5059370;28;20484;-66
2022/12/20 01:01:19;;;;;;;7.13;4.70;;;9.70;1.00;;;;;;5059087;28;20962;-66
2022/12/20 01:03:46;;;;;;;5.83;4.20;;;9.80;1.00;;;;;;5059227;28;20498;-66
2022/12/20 01:06:13;;;;;;;4.80;4.30;;;9.80;1.00;;;;;;5058576;28;20785;-66
2022/12/20 01:08:41;;;;;;;7.80;4.43;;;9.70;1.00;;;;;;5058828;28;20552;-65
2022/12/20 01:11:11;;;;;;;4.60;4.07;;;9.80;1.00;;;;;;5058981;28;20441;-65
2022/12/20 01:13:40;;;;;;;4.80;3.93;;;9.80;1.00;;;;;;5057668;28;20462;-66
2022/12/20 01:16:12;;;;;;;5.40;4.53;;;9.70;1.00;;;;;;5058477;28;20476;-66
2022/12/20 01:18:40;;;;;;;7.57;4.50;;;9.70;1.00;;;;;;5059021;28;20764;-66
2022/12/20 01:21:08;;;;;;;5.50;4.30;;;9.70;1.00;;;;;;5058792;28;20535;-66
2022/12/20 01:23:35;;;;;;;5.67;4.23;;;9.70;1.00;;;;;;5058313;28;20502;-65
2022/12/20 01:26:04;;;;;;;5.13;4.30;;;9.70;1.00;;;;;;5058531;28;20462;-66
2022/12/20 01:28:33;;;;;;;5.33;4.33;;;9.70;1.00;;;;;;5058409;28;20502;-65
2022/12/20 01:31:00;;;;;;;5.13;4.00;;;9.80;1.00;;;;;;5058421;28;20879;-67
2022/12/20 01:33:29;;;;;;;5.00;4.40;;;9.90;1.00;;;;;;5058578;28;20565;-66
2022/12/20 01:35:58;;;;;;;7.23;4.27;;;9.90;1.00;;;;;;5054550;28;20521;-66
2022/12/20 01:38:25;;;;;;;6.30;4.43;;;9.90;1.00;;;;;;5038355;28;20537;-66
2022/12/20 01:40:52;;;;;;;4.30;3.80;;;9.90;1.00;;;;;;5038618;28;20467;-66
2022/12/20 01:43:21;;;;;;;7.20;4.40;;;10.00;1.00;;;;;;5038404;28;20522;-64
2022/12/20 01:45:48;;;;;;;6.97;4.60;;;10.00;24.60;;;;;;5037810;28;20499;-62
2022/12/20 01:48:20;;;;;;;5.17;4.67;;;9.80;99.90;;;;;;5038883;28;20766;-63
2022/12/20 01:50:50;;;;;;;5.40;4.50;;;9.70;99.90;;;;;;5038585;28;20467;-62
2022/12/20 01:53:24;;;;;;;6.90;5.67;;;9.70;99.90;;;;;;5038376;28;20530;-62
2022/12/20 01:55:51;;;;;;;5.50;4.60;;;9.60;99.90;;;;;;5037983;28;20561;-61
2022/12/20 01:58:20;;;;;;;6.80;5.60;;;9.60;1.00;;;;;;5037766;28;20463;-62
2022/12/20 02:00:51;;;;;;;8.03;5.10;;;9.50;99.90;;;;;;5037994;28;20466;-62
2022/12/20 02:03:18;;;;;;;5.77;5.13;;;9.50;99.90;;;;;;5038032;28;20811;-62
2022/12/20 02:05:47;;;;;;;8.73;4.87;;;9.40;1.00;;;;;;5037419;28;20505;-62
2022/12/20 02:08:18;;;;;;;6.77;4.90;;;9.40;1.00;;;;;;5037866;28;20954;-61
2022/12/20 02:11:03;;;;;;;6.60;5.30;;;9.40;1.00;;;;;;5038074;28;20503;-62
2022/12/20 02:13:38;;;;;;;6.87;4.57;;;9.40;99.90;;;;;;5037967;28;20472;-61
2022/12/20 02:16:05;;;;;;;8.07;5.47;;;9.40;99.90;;;;;;5037535;28;20462;-62
2022/12/20 02:18:38;;;;;;;6.77;4.83;;;9.40;99.90;;;;;;5038047;28;20885;-62
2022/12/20 02:21:29;;;;;;;6.67;4.50;;;9.30;99.90;;;;;;5037952;28;20463;-62
2022/12/20 02:24:44;;;;;;;6.10;4.87;;;9.30;99.90;;;;;;5037393;28;20469;-60
2022/12/20 02:27:48;;;;;;;8.10;5.53;;;9.20;99.90;;;;;;4957466;28;20466;-63
2022/12/20 02:30:19;;;;;;;6.30;5.40;;;9.20;1.00;;;;;;4955962;29;20454;-61
2022/12/20 02:32:52;;;;;;;7.63;5.47;;;9.20;1.00;;;;;;5023577;28;20469;-62
2022/12/20 02:35:24;;;;;;;7.17;6.03;;;9.10;1.00;;;;;;5037809;28;20465;-62
2022/12/20 02:37:54;;;;;;;6.73;5.90;;;9.10;1.00;;;;;;5037361;28;20458;-62
2022/12/20 02:40:25;;;;;;;9.67;6.33;;;9.00;1.00;;;;;;5037394;28;20464;-62
2022/12/20 02:42:56;;;;;;;8.90;6.77;;;9.00;1.00;;;;;;5036920;28;20887;-63
2022/12/20 02:45:28;;;;;;;8.80;6.40;;;9.00;1.00;;;;;;5037168;28;20491;-62
2022/12/20 02:48:00;;;;;;;9.40;6.20;;;8.90;1.00;;;;;;5037177;28;20463;-62
2022/12/20 02:50:31;;;;;;;6.67;5.97;;;8.90;7.10;;;;;;5037512;28;20467;-61
2022/12/20 02:52:59;;;;;;;8.80;6.30;;;8.80;99.90;;;;;;5037361;28;20506;-59
2022/12/20 02:55:36;;;;;;;9.33;7.40;;;8.80;99.90;;;;;;5037738;28;20560;-59
2022/12/20 02:58:06;;;;;;;8.70;6.00;;;8.80;99.90;;;;;;5037342;28;20459;-61
2022/12/20 03:00:43;;;;;;;7.13;6.43;;;8.80;99.90;;;;;;5036937;28;20459;-61
2022/12/20 03:03:23;;;;;;;6.87;6.17;;;8.90;99.90;;;;;;5037444;28;20437;-60
2022/12/20 03:05:53;;;;;;;8.67;6.30;;;8.80;99.90;;;;;;5036935;28;20509;-61
2022/12/20 03:08:21;;;;;;;7.47;6.50;;;8.80;99.90;;;;;;5036817;28;20464;-62
2022/12/20 03:10:49;;;;;;;8.30;6.20;;;8.80;99.90;;;;;;5036963;28;20499;-61
2022/12/20 03:13:17;;;;;;;9.60;6.93;;;8.80;99.90;;;;;;5037285;28;20491;-62
2022/12/20 03:15:45;;;;;;;9.60;5.70;;;8.90;99.90;;;;;;5036631;28;20473;-62
2022/12/20 03:18:13;;;;;;;7.20;5.90;;;8.80;99.90;;;;;;5037015;28;20466;-61
2022/12/20 03:20:40;;;;;;;7.30;5.87;;;8.90;99.90;;;;;;5036645;28;20459;-62
2022/12/20 03:23:07;;;;;;;11.63;6.83;;;8.90;99.90;;;;;;5036749;28;20463;-62
2022/12/20 03:25:35;;;;;;;7.50;6.27;;;8.90;99.90;;;;;;5036589;28;20491;-62
2022/12/20 03:28:04;;;;;;;9.20;6.10;;;8.90;99.90;;;;;;5036591;28;20561;-62
2022/12/20 03:30:31;;;;;;;7.47;6.63;;;8.90;99.90;;;;;;5036696;28;20444;-63
2022/12/20 03:33:00;;;;;;;8.43;6.70;;;8.90;99.90;;;;;;5037013;28;20467;-61
2022/12/20 03:35:27;;;;;;;7.03;6.33;;;8.90;99.90;;;;;;5037141;28;20486;-62
2022/12/20 03:37:55;;;;;;;8.77;6.47;;;8.90;73.40;;;;;;5036984;28;20463;-63
2022/12/20 03:40:22;;;;;;;8.73;6.87;;;9.00;70.40;;;;;;5036753;28;20962;-63
2022/12/20 03:42:49;;;;;;;7.53;6.03;;;9.00;43.70;;;;;;5036809;28;20463;-63
2022/12/20 03:45:16;;;;;;;7.23;5.83;;;9.00;49.60;;;;;;5037038;28;20581;-63
2022/12/20 03:47:44;;;;;;;9.30;6.67;;;8.90;39.80;;;;;;5036708;28;20477;-62
2022/12/20 03:50:13;;;;;;;7.80;6.30;;;9.00;69.50;;;;;;5036997;28;20467;-62
2022/12/20 03:52:40;;;;;;;7.63;6.83;;;9.00;99.90;;;;;;5038545;28;20473;-63
2022/12/20 03:55:11;;;;;;;8.90;6.27;;;9.00;99.90;;;;;;5041257;28;20458;-63
2022/12/20 03:57:38;;;;;;;7.60;5.80;;;9.00;1.00;;;;;;5040505;28;20467;-62
2022/12/20 04:00:07;;;;;;;6.20;5.60;;;9.00;99.90;;;;;;5040174;28;20463;-63
2022/12/20 04:02:34;;;;;;;8.03;6.27;;;8.90;66.00;;;;;;5040053;28;20506;-64
2022/12/20 04:05:01;;;;;;;6.50;5.43;;;8.90;1.00;;;;;;5040138;28;20499;-64
2022/12/20 04:07:30;;;;;;;9.70;6.07;;;9.00;14.90;;;;;;5040309;28;20467;-64
2022/12/20 04:09:57;;;;;;;7.93;7.00;;;8.90;1.00;;;;;;5040092;28;20557;-64
2022/12/20 04:12:24;;;;;;;7.90;6.30;;;8.90;99.90;;;;;;5039796;28;20469;-64
2022/12/20 04:14:51;;;;;;;8.10;5.80;;;8.80;1.00;;;;;;5040091;28;20459;-64
2022/12/20 04:17:19;;;;;;;9.37;6.47;;;8.80;1.00;;;;;;5040094;28;20506;-63
2022/12/20 04:19:46;;;;;;;10.63;7.17;;;8.80;60.00;;;;;;5040001;28;20741;-64
2022/12/20 04:22:13;;;;;;;8.20;6.77;;;8.80;99.90;;;;;;5040347;28;20542;-64
2022/12/20 04:24:42;;;;;;;8.53;6.90;;;8.80;99.90;;;;;;5039800;28;20867;-65
2022/12/20 04:27:09;;;;;;;7.70;6.50;;;8.80;99.90;;;;;;5039958;28;20553;-63
2022/12/20 04:29:36;;;;;;;11.10;6.53;;;8.80;99.90;;;;;;5039346;28;20471;-63
2022/12/20 04:32:03;;;;;;;9.20;6.90;;;8.70;99.90;;;;;;5039120;28;20517;-64
2022/12/20 04:34:30;;;;;;;13.07;7.73;;;8.70;99.90;;;;;;5039933;28;20489;-63
2022/12/20 04:36:58;;;;;;;7.23;5.63;;;8.80;99.90;;;;;;5039752;28;20463;-63
2022/12/20 04:39:25;;;;;;;8.90;7.27;;;8.80;99.90;;;;;;5039852;28;20463;-62
2022/12/20 04:41:53;;;;;;;8.63;6.50;;;8.80;99.90;;;;;;5039293;28;20474;-64
2022/12/20 04:44:21;;;;;;;13.27;6.63;;;8.80;99.90;;;;;;5039268;28;20469;-63
2022/12/20 04:46:48;;;;;;;7.73;6.80;;;8.80;99.90;;;;;;5039519;28;20927;-61
2022/12/20 04:49:15;;;;;;;8.50;6.17;;;8.80;99.90;;;;;;5039068;28;20626;-58
2022/12/20 04:51:42;;;;;;;11.77;6.83;;;8.80;99.90;;;;;;5039633;28;20463;-60
2022/12/20 04:54:08;;;;;;;10.30;6.50;;;8.90;99.90;;;;;;5039577;28;20473;-61
2022/12/20 04:56:37;;;;;;;9.00;6.93;;;8.80;99.90;;;;;;5039579;28;20937;-62
2022/12/20 04:59:06;;;;;;;10.87;7.30;;;8.80;99.90;;;;;;5039122;28;20444;-63
2022/12/20 05:01:33;;;;;;;10.27;6.23;;;8.90;99.90;;;;;;5039340;28;20490;-63
2022/12/20 05:04:01;;;;;;;10.93;6.77;;;8.80;99.90;;;;;;5038865;28;20547;-63
2022/12/20 05:06:28;;;;;;;7.50;6.60;;;8.90;99.90;;;;;;5038648;28;20526;-64
2022/12/20 05:08:55;;;;;;;10.10;6.60;;;8.90;99.90;;;;;;5039011;28;20463;-64
2022/12/20 05:11:22;;;;;;;8.03;6.57;;;8.90;99.90;;;;;;5039116;28;20546;-65
2022/12/20 05:13:50;;;;;;;9.70;6.40;;;8.90;99.90;;;;;;5040288;28;20491;-65
2022/12/20 05:16:18;;;;;;;7.43;6.70;;;8.90;99.90;;;;;;5058998;28;20546;-63
2022/12/20 05:18:45;;;;;;;7.10;6.00;;;8.90;99.90;;;;;;5058561;28;20467;-62
2022/12/20 05:26:41;;;;;;;7.47;6.77;;;8.90;99.90;;;;;;5058449;28;20527;-63
2022/12/20 05:29:09;;;;;;;11.10;7.53;;;8.90;99.90;;;;;;5058841;28;20468;-65
2022/12/20 05:31:37;;;;;;;8.00;6.47;;;8.90;99.90;;;;;;5058511;28;20462;-64
2022/12/20 05:34:04;;;;;;;8.50;6.97;;;8.90;99.90;;;;;;5058499;28;20472;-64
2022/12/20 05:36:31;;;;;;;10.40;7.27;;;8.90;99.90;;;;;;5058643;28;20462;-63
2022/12/20 05:38:59;;;;;;;9.50;7.10;;;8.80;99.90;;;;;;5058655;28;20480;-64
2022/12/20 05:41:26;;;;;;;9.57;6.67;;;8.80;99.90;;;;;;5058766;28;20468;-63
2022/12/20 05:43:53;;;;;;;8.33;6.50;;;8.80;99.90;;;;;;5058252;28;20466;-64
2022/12/20 05:46:20;;;;;;;7.93;6.80;;;8.80;99.90;;;;;;5058068;28;20588;-64
2022/12/20 05:48:49;;;;;;;9.20;6.83;;;8.80;99.90;;;;;;5058318;28;20462;-64
2022/12/20 05:51:16;;;;;;;9.40;6.90;;;8.80;99.90;;;;;;5058569;28;20552;-64
2022/12/20 05:53:43;;;;;;;7.40;6.20;;;8.80;99.90;;;;;;5057815;28;20528;-64
2022/12/20 05:56:10;;;;;;;10.93;7.80;;;8.80;99.90;;;;;;5057788;28;20620;-63
2022/12/20 05:58:39;;;;;;;8.73;6.70;;;8.80;99.90;;;;;;5058007;28;20524;-64
2022/12/20 06:01:08;;;;;;;13.67;8.03;;;8.80;99.90;;;;;;5057877;28;20536;-64
2022/12/20 06:03:36;;;;;;;10.20;7.00;;;8.80;99.90;;;;;;5057786;28;20464;-64
2022/12/20 06:06:05;;;;;;;9.77;7.20;;;8.70;99.90;;;;;;5057627;28;20498;-64
2022/12/20 06:08:32;;;;;;;10.07;6.73;;;8.80;99.90;;;;;;5057944;28;20466;-65
2022/12/20 06:11:00;;;;;;;9.97;6.80;;;8.80;99.90;;;;;;5057920;28;20490;-64
2022/12/20 06:13:28;;;;;;;7.67;6.23;;;8.80;99.90;;;;;;5057958;28;20466;-64
2022/12/20 06:15:55;;;;;;;7.80;7.00;;;8.80;99.90;;;;;;5057336;28;20513;-63
2022/12/20 06:18:25;;;;;;;16.80;7.57;;;8.80;99.90;;;;;;5057190;28;20463;-63
2022/12/20 06:20:55;;;;;;;7.07;6.37;;;8.80;99.90;;;;;;5057457;28;20463;-63
2022/12/20 06:23:26;;;;;;;8.90;6.27;;;8.90;99.90;;;;;;5057533;28;20466;-63
2022/12/20 06:26:01;;;;;;;9.90;7.20;;;8.90;99.90;;;;;;5057366;28;20493;-63
2022/12/20 06:28:34;;;;;;;7.33;6.23;;;8.90;99.90;;;;;;5057571;28;20436;-63
2022/12/20 06:31:04;;;;;;;9.97;6.97;;;9.00;99.90;;;;;;5056524;28;20504;-63
2022/12/20 06:33:33;;;;;;;16.53;6.50;;;8.90;99.90;;;;;;5057238;28;20466;-63
2022/12/20 06:36:02;;;;;;;9.00;6.00;;;8.90;52.90;;;;;;5057755;28;20460;-63
2022/12/20 06:38:34;;;;;;;7.30;6.30;;;8.90;1.00;;;;;;5037781;28;20483;-63
2022/12/20 06:41:03;;;;;;;7.30;5.60;;;9.00;99.90;;;;;;5016030;28;20533;-62
2022/12/20 06:43:33;;;;;;;7.00;6.27;;;9.00;75.20;;;;;;5016115;28;20769;-59
2022/12/20 06:46:03;;;;;;;7.17;6.50;;;9.00;99.90;;;;;;5016508;28;20506;-60
2022/12/20 06:48:32;;;;;;;7.70;6.17;;;9.00;4.80;;;;;;5016639;28;20471;-62
2022/12/20 06:51:03;;;;;;;8.77;6.37;;;9.00;99.90;;;;;;5016776;28;20567;-62
2022/12/20 06:53:45;;;;;;;7.10;6.27;;;9.00;1.00;;;;;;5017626;28;20515;-61
2022/12/20 06:56:14;;;;;;;6.40;5.30;;;9.00;1.00;;;;;;5017139;28;20452;-63
2022/12/20 06:58:46;;;;;;;7.83;6.23;;;9.00;57.20;;;;;;5016792;28;20937;-61
2022/12/20 07:01:16;;;;;;;6.70;5.00;;;9.00;99.90;;;;;;5016981;28;20483;-61
2022/12/20 07:03:45;;;;;;;6.40;5.60;;;8.90;1.00;;;;;;5015254;28;20471;-62
2022/12/20 07:06:15;;;;;;;6.90;6.07;;;9.00;1.00;;;;;;5014440;28;20504;-61
2022/12/20 07:08:45;;;;;;;5.83;5.20;;;9.00;99.90;;;;;;5015944;28;20464;-61
2022/12/20 07:11:19;;;;;;;8.70;6.93;;;9.00;99.90;;;;;;5016254;28;20554;-61
2022/12/20 07:13:51;;;;;;;8.00;5.47;;;9.00;1.00;;;;;;5017673;28;20804;-62
2022/12/20 07:16:22;;;;;;;7.13;6.17;;;9.00;99.90;;;;;;5000717;28;20460;-62
2022/12/20 07:18:52;;;;;;;11.30;6.20;;;9.00;1.00;;;;;;5016905;28;20821;-62
2022/12/20 07:21:22;;;;;;;6.80;6.03;;;9.00;1.00;;;;;;5016575;28;20464;-61
2022/12/20 07:23:57;;;;;;;10.33;6.33;;;8.90;1.00;;;;;;5016920;28;20464;-61
2022/12/20 07:26:28;;;;;;;7.80;6.37;;;8.90;1.00;;;;;;5015981;28;20574;-62
2022/12/20 07:28:56;;;;;;;8.63;6.00;;;8.90;1.00;;;;;;5018879;28;20518;-62
2022/12/20 07:31:25;;;;;;;7.70;6.10;;;8.90;1.00;;;;;;5021205;28;20550;-62
2022/12/20 07:33:59;;;;;;;7.50;6.23;;;8.90;1.00;;;;;;5020255;28;20845;-61
2022/12/20 07:36:31;;;;;;;7.13;6.03;;;8.90;1.00;;;;;;5021257;28;20484;-62
2022/12/20 07:39:09;;;;;;;9.77;7.30;;;8.90;1.00;;;;;;5020904;28;20459;-63
2022/12/20 07:41:36;;;;;;;8.80;6.30;;;8.90;1.00;;;;;;5021027;28;20464;-62
2022/12/20 07:44:04;;;;;;;6.57;5.87;;;8.90;1.00;;;;;;5021374;28;20466;-61
2022/12/20 07:46:32;;;;;;;7.47;6.33;;;8.90;99.90;;;;;;5020805;28;20586;-61
2022/12/20 07:48:59;;;;;;;7.67;6.20;;;8.90;99.90;;;;;;5020434;28;20739;-62
2022/12/20 07:51:31;;;;;;;8.27;6.37;;;8.90;99.90;;;;;;5020767;28;20463;-64
2022/12/20 07:54:03;;;;;;;9.70;6.00;;;9.00;99.90;;;;;;5020407;28;20741;-59
2022/12/20 07:56:32;;;;;;;7.23;5.40;;;9.00;99.90;;;;;;5020421;28;20915;-62
2022/12/20 07:59:01;;;;;;;8.10;6.17;;;9.00;14.90;;;;;;5020235;28;20464;-62
2022/12/20 08:01:30;;;;;;;6.20;5.17;;;9.00;1.00;;;;;;5020306;28;20468;-61
2022/12/20 08:04:02;;;;;;;6.63;5.83;;;9.10;1.00;;;;;;5020610;28;20502;-62
2022/12/20 08:06:30;;;;;;;9.53;6.10;;;9.10;1.00;;;;;;5020007;28;20795;-61
2022/12/20 08:09:00;;;;;;;7.37;6.00;;;9.10;1.00;;;;;;5020216;28;20885;-60
2022/12/20 08:11:30;;;;;;;8.60;5.50;;;9.10;1.00;;;;;;5020110;28;20558;-61
2022/12/20 08:13:57;;;;;;;7.03;5.83;;;9.10;1.00;;;;;;5020975;28;20468;-62
2022/12/20 08:16:25;;;;;;;7.53;5.60;;;9.10;1.00;;;;;;5020093;28;20887;-62
2022/12/20 08:18:52;;;;;;;9.73;6.13;;;9.10;1.00;;;;;;5020166;28;20464;-62
2022/12/20 08:21:19;;;;;;;7.80;5.57;;;9.10;1.00;;;;;;5020265;28;20446;-62
2022/12/20 08:23:46;;;;;;;8.23;6.53;;;9.10;1.00;;;;;;5020147;28;20467;-61
2022/12/20 08:26:13;;;;;;;6.97;5.67;;;9.20;1.00;;;;;;5019850;28;20495;-62
2022/12/20 08:28:42;;;;;;;5.60;5.00;;;9.20;1.00;;;;;;5018997;28;20558;-62
2022/12/20 08:31:11;;;;;;;6.67;5.30;;;9.20;1.00;;;;;;5019784;28;20470;-62
2022/12/20 08:33:39;;;;;;;10.17;5.40;;;9.30;1.00;;;;;;5033427;28;20463;-62
2022/12/20 08:36:08;;;;;;;9.43;5.40;;;9.30;99.90;;;;;;5039300;28;20491;-63
2022/12/20 08:38:35;;;;;;;5.80;5.20;;;9.40;99.90;;;;;;5038596;28;20474;-61
2022/12/20 08:41:04;;;;;;;7.73;5.70;;;9.40;99.90;;;;;;5038278;28;20470;-61
2022/12/20 08:43:31;;;;;;;7.17;5.67;;;9.50;99.90;;;;;;5039264;28;20463;-62
2022/12/20 08:46:00;;;;;;;5.53;4.70;;;9.50;99.90;;;;;;5039377;28;20497;-62
2022/12/20 08:48:28;;;;;;;8.23;5.73;;;9.50;99.90;;;;;;5039289;28;20911;-62
2022/12/20 08:50:56;;;;;;;6.13;4.93;;;9.60;99.90;;;;;;5038827;28;20557;-62
2022/12/20 08:53:23;;;;;;;7.77;4.83;;;9.60;99.90;;;;;;5033644;28;20509;-62
2022/12/20 08:55:50;;;;;;;7.40;4.50;;;9.60;53.70;;;;;;5019091;28;20474;-62
2022/12/20 08:58:18;;;;;;;6.60;5.50;;;9.60;49.80;;;;;;5020783;28;20822;-62
2022/12/20 09:00:45;;;;;;;6.67;5.50;;;9.60;28.00;;;;;;5038570;28;20463;-62
2022/12/20 09:03:14;;;;;;;6.23;4.90;;;9.50;13.30;;;;;;5039120;28;20467;-62
2022/12/20 09:05:46;;;;;;;7.50;5.73;;;9.50;13.90;;;;;;5038525;28;20491;-62
2022/12/20 09:08:14;;;;;;;9.40;5.90;;;9.50;28.30;;;;;;5038823;28;20551;-62
2022/12/20 09:10:42;;;;;;;9.33;5.27;;;9.40;26.60;;;;;;5037972;28;20558;-62
2022/12/20 09:13:09;;;;;;;6.90;6.20;;;9.40;23.00;;;;;;5038415;28;20820;-62
2022/12/20 09:15:37;;;;;;;7.23;5.00;;;9.50;26.80;;;;;;5039000;28;20463;-62
2022/12/20 09:18:04;;;;;;;7.00;5.60;;;9.50;21.50;;;;;;5038693;28;20459;-61
2022/12/20 09:20:33;;;;;;;8.63;5.90;;;9.50;12.70;;;;;;5035764;28;20464;-62
2022/12/20 09:23:00;;;;;;;7.70;5.70;;;9.50;15.60;;;;;;5018061;28;20470;-63
2022/12/20 09:25:28;;;;;;;7.50;5.73;;;9.50;3.10;;;;;;5017627;28;20467;-63
2022/12/20 09:27:56;;;;;;;6.57;5.00;;;9.50;1.00;;;;;;5017139;28;20492;-63
2022/12/20 09:30:23;;;;;;;7.40;5.30;;;9.50;1.00;;;;;;5016852;28;20944;-63
2022/12/20 09:32:50;;;;;;;8.40;5.30;;;9.50;1.00;;;;;;5014996;28;20483;-63
2022/12/20 09:35:18;;;;;;;6.57;4.87;;;9.60;1.00;;;;;;5016253;28;20443;-63
2022/12/20 09:37:46;;;;;;;6.60;4.97;;;9.60;1.00;;;;;;5015537;28;20464;-63
2022/12/20 09:40:18;;;;;;;8.67;4.90;;;9.70;1.00;;;;;;5017209;28;20471;-63
2022/12/20 09:42:46;;;;;;;7.80;5.30;;;9.70;1.00;;;;;;5047210;28;20464;-63
2022/12/20 09:45:21;;;;;;;8.50;5.00;;;9.70;1.00;;;;;;5057571;28;20466;-63
2022/12/20 09:47:48;;;;;;;7.40;5.10;;;9.80;1.00;;;;;;5057555;28;20504;-62
2022/12/20 09:50:17;;;;;;;7.47;5.00;;;9.80;1.00;;;;;;5057564;28;20466;-62
2022/12/20 09:53:02;;;;;;;7.73;4.50;;;9.80;1.00;;;;;;5057253;28;20463;-63
2022/12/20 09:55:37;;;;;;;6.40;4.80;;;9.80;1.00;;;;;;5018563;28;20438;-62
2022/12/20 09:58:18;;;;;;;5.47;4.97;;;9.90;1.00;;;;;;5015948;28;20466;-63
2022/12/20 10:00:47;;;;;;;5.77;4.87;;;10.00;1.00;;;;;;5015757;28;20450;-62
2022/12/20 10:03:20;;;;;;;4.80;4.30;;;10.10;1.00;;;;;;5016409;28;20470;-62
2022/12/20 10:05:52;;;;;;;4.30;3.83;;;10.20;1.00;;;;;;5016075;28;20492;-62
2022/12/20 10:08:36;;;;;;;8.70;4.77;;;10.30;1.00;;;;;;5015928;28;20495;-62
2022/12/20 10:11:11;;;;;;;6.27;4.13;;;10.40;1.00;;;;;;5016391;28;20796;-62
2022/12/20 10:13:47;;;;;;;5.37;4.00;;;10.50;1.00;;;;;;5016641;28;20465;-63
2022/12/20 10:16:29;;;;;;;5.27;4.30;;;10.50;1.00;;;;;;5015281;28;20472;-62
2022/12/20 10:19:08;;;;;;;4.90;4.13;;;10.60;1.00;;;;;;5015754;28;20456;-60
2022/12/20 10:21:43;;;;;;;4.27;3.70;;;10.60;1.00;;;;;;5015817;28;20470;-63
2022/12/20 10:24:16;;;;;;;6.23;3.80;;;10.60;1.00;;;;;;5016206;28;20470;-63
2022/12/20 10:26:44;;;;;;;4.50;3.90;;;10.60;1.00;;;;;;5016252;28;20470;-62
2022/12/20 10:29:11;;;;;;;4.87;3.60;;;10.60;1.00;;;;;;5016088;28;20881;-62
2022/12/20 10:31:39;;;;;;;5.93;3.73;;;10.60;1.00;;;;;;5016204;28;20452;-62
2022/12/20 10:34:06;;;;;;;5.47;4.30;;;10.60;1.00;;;;;;5017987;28;20468;-62
2022/12/20 10:36:35;;;;;;;8.20;4.03;;;10.70;1.00;;;;;;5017874;28;20880;-63
2022/12/20 10:39:04;;;;;;;6.80;3.90;;;10.60;1.00;;;;;;5017818;28;20746;-63
2022/12/20 10:41:47;;;;;;;3.83;3.30;;;10.60;1.00;;;;;;5017519;28;20876;-62
2022/12/20 10:44:24;;;;;;;6.20;3.63;;;10.60;1.00;;;;;;5017913;28;20472;-63
2022/12/20 10:46:54;;;;;;;5.47;3.67;;;10.70;1.00;;;;;;5017459;28;20959;-63
2022/12/20 10:49:27;;;;;;;4.33;3.60;;;10.70;1.00;;;;;;5017352;28;20468;-63
2022/12/20 10:51:56;;;;;;;5.70;4.20;;;10.70;1.00;;;;;;5017685;28;20500;-63
2022/12/20 10:54:28;;;;;;;5.50;4.30;;;10.70;1.00;;;;;;5016347;28;20463;-63
2022/12/20 10:56:59;;;;;;;5.47;4.43;;;10.70;1.00;;;;;;5017625;28;20479;-63
2022/12/20 10:59:33;;;;;;;4.40;3.70;;;10.60;1.00;;;;;;5016334;28;20553;-63
2022/12/20 11:02:00;;;;;;;7.77;3.97;;;10.60;1.00;;;;;;5015753;28;20464;-62
2022/12/20 11:04:30;;;;;;;4.50;4.10;;;10.60;1.00;;;;;;5015195;28;20464;-63
2022/12/20 11:06:58;;;;;;;4.73;3.93;;;10.60;1.00;;;;;;5024229;28;20487;-63
2022/12/20 11:09:31;;;;;;;6.67;4.03;;;10.60;1.00;;;;;;5034045;28;20481;-63
2022/12/20 11:12:02;;;;;;;6.10;3.50;;;10.60;1.00;;;;;;5037334;28;20561;-63
2022/12/20 11:14:30;;;;;;;5.50;3.50;;;10.60;1.00;;;;;;5037201;28;20892;-63
2022/12/20 11:17:00;;;;;;;5.00;3.30;;;10.60;1.00;;;;;;5036779;28;20463;-63
2022/12/20 11:19:50;;;;;;;5.30;3.67;;;10.70;1.00;;;;;;5036806;28;20463;-63
2022/12/20 11:22:32;;;;;;;4.63;3.67;;;10.80;1.00;;;;;;5037019;28;20873;-63
2022/12/20 11:25:20;;;;;;;4.70;3.90;;;10.90;1.00;;;;;;5036942;28;20888;-63
2022/12/20 11:28:00;;;;;;;6.83;4.00;;;11.00;1.00;;;;;;5036751;28;20499;-63
2022/12/20 11:30:38;;;;;;;4.50;3.83;;;11.00;1.00;;;;;;5036162;28;20471;-62
2022/12/20 11:33:26;;;;;;;4.90;4.30;;;10.90;1.00;;;;;;5036545;28;20467;-63
2022/12/20 11:36:00;;;;;;;4.33;3.93;;;10.90;1.00;;;;;;5021121;28;20679;-63
2022/12/20 11:38:39;;;;;;;5.07;4.30;;;11.00;1.00;;;;;;5016523;28;20471;-63
2022/12/20 11:41:16;;;;;;;6.30;4.07;;;11.00;1.00;;;;;;5016787;28;20464;-63
2022/12/20 11:44:17;;;;;;;10.50;3.50;;;11.10;1.00;;;;;;5016640;28;20467;-62
2022/12/20 11:47:05;;;;;;;5.90;4.33;;;11.10;1.00;;;;;;5016723;28;20841;-62
2022/12/20 11:49:57;;;;;;;5.73;3.60;;;11.10;1.00;;;;;;5021409;28;20451;-60
2022/12/20 11:52:34;;;;;;;4.57;3.20;;;11.10;1.00;;;;;;5013793;28;20570;-61
2022/12/20 11:55:14;;;;;;;7.73;3.27;;;11.10;1.00;;;;;;5016635;28;20460;-62
2022/12/20 11:57:50;;;;;;;4.30;3.83;;;11.10;1.00;;;;;;5021973;28;20459;-63
2022/12/20 12:00:21;;;;;;;9.40;3.60;;;11.10;1.00;;;;;;5016667;28;20486;-62
2022/12/20 12:02:54;;;;;;;5.47;3.30;;;11.00;1.00;;;;;;5015785;28;20470;-63
2022/12/20 12:05:26;;;;;;;3.30;3.00;;;11.10;1.00;;;;;;5016609;28;20491;-63
2022/12/20 12:07:59;;;;;;;4.87;3.70;;;11.00;1.00;;;;;;5017173;28;20502;-63
2022/12/20 12:10:32;;;;;;;3.53;3.23;;;11.00;1.00;;;;;;5016982;28;20948;-63
2022/12/20 12:13:06;;;;;;;6.00;3.40;;;11.10;1.00;;;;;;5016403;28;20468;-62
2022/12/20 12:15:40;;;;;;;5.63;4.10;;;11.10;1.00;;;;;;5020419;28;20472;-62
2022/12/20 12:18:13;;;;;;;7.90;4.20;;;11.10;1.00;;;;;;5037503;28;20473;-63
2022/12/20 12:20:51;;;;;;;5.03;4.07;;;11.00;1.00;;;;;;5039378;28;20463;-63
2022/12/20 12:23:23;;;;;;;5.10;3.37;;;11.00;1.00;;;;;;5039899;28;20463;-64
2022/12/20 12:25:50;;;;;;;4.70;3.93;;;11.00;1.00;;;;;;5040339;28;20465;-61
2022/12/20 12:28:19;;;;;;;3.93;3.50;;;11.00;1.00;;;;;;5046330;28;20486;-62
2022/12/20 12:30:53;;;;;;;4.90;3.70;;;10.90;1.00;;;;;;5026639;28;20478;-64
2022/12/20 12:33:24;;;;;;;5.53;3.23;;;10.90;1.00;;;;;;5018906;28;20776;-63
2022/12/20 12:36:17;;;;;;;7.43;4.00;;;10.90;1.00;;;;;;5019860;28;20467;-64
2022/12/20 12:39:10;;;;;;;4.67;4.17;;;10.80;1.00;;;;;;5014236;28;20479;-64
2022/12/20 12:42:07;;;;;;;4.23;3.33;;;10.90;1.00;;;;;;5019133;28;20570;-64
2022/12/20 12:44:43;;;;;;;8.23;4.60;;;10.90;1.00;;;;;;5037682;28;20459;-63
2022/12/20 12:47:19;;;;;;;4.70;4.13;;;10.90;1.00;;;;;;5037860;28;20782;-64
2022/12/20 12:49:49;;;;;;;5.87;4.17;;;10.90;1.00;;;;;;5038194;28;20767;-64
2022/12/20 12:52:42;;;;;;;6.30;4.27;;;10.80;1.00;;;;;;5039610;28;20467;-63
2022/12/20 12:55:35;;;;;;;6.07;4.83;;;10.80;1.00;;;;;;5035937;28;20471;-62
2022/12/20 12:58:28;;;;;;;6.57;4.63;;;10.70;1.00;;;;;;5039389;28;20760;-62
2022/12/20 13:01:00;;;;;;;8.57;4.27;;;10.60;1.00;;;;;;5036007;28;20514;-64
2022/12/20 13:03:41;;;;;;;4.83;4.40;;;10.60;1.00;;;;;;5039220;28;20517;-64
2022/12/20 13:06:44;;;;;;;7.00;4.73;;;10.50;1.00;;;;;;5038477;28;20493;-64
2022/12/20 13:09:21;;;;;;;5.97;4.30;;;10.60;1.00;;;;;;5039196;28;20495;-64
2022/12/20 13:11:49;;;;;;;5.03;4.43;;;10.60;35.50;;;;;;5038555;28;20467;-65
2022/12/20 13:14:48;;;;;;;5.03;3.87;;;10.40;99.90;;;;;;5038716;28;20880;-62
2022/12/20 13:17:48;;;;;;;5.23;4.00;;;10.40;99.90;;;;;;5038997;28;20466;-61
2022/12/20 13:20:22;;;;;;;6.93;6.10;;;10.40;1.00;;;;;;5037859;28;20880;-62
2022/12/20 13:23:16;;;;;;;6.33;4.80;;;10.40;1.00;;;;;;5038191;28;20470;-63
2022/12/20 13:25:46;;;;;;;6.37;5.10;;;10.40;99.90;;;;;;5038103;28;20475;-63
2022/12/20 13:28:52;;;;;;;9.70;5.27;;;10.30;99.90;;;;;;5037668;28;20491;-64